Time;durP1;ratioP1;P1;durP2;ratioP2;P2;SDS_P1;SDS_P2;PMS_P1;PMS_P2;Temp;Humidity;BMP_temperature;BMP_pressure;BME280_temperature;BME280_humidity;BME280_pressure;Samples;Min_cycle;Max_cycle;Signal;HPM_P1;HPM_P2
2023/05/24 00:01:06;;;;;;;11.93;2.67;;;;;;;;;;5067393;27;20101;-71
2023/05/24 00:03:33;;;;;;;8.55;1.88;;;;;;;;;;5086750;28;20008;-71
2023/05/24 00:06:05;;;;;;;4.97;2.00;;;;;;;;;;5105667;28;20039;-71
2023/05/24 00:08:31;;;;;;;9.10;2.30;;;;;;;;;;5105896;28;20118;-71
2023/05/24 00:10:57;;;;;;;10.38;2.95;;;;;;;;;;5098388;27;20065;-71
2023/05/24 00:13:22;;;;;;;12.52;2.50;;;;;;;;;;5091120;27;20048;-71
2023/05/24 00:15:48;;;;;;;5.45;2.03;;;;;;;;;;5108232;27;20031;-71
2023/05/24 00:18:13;;;;;;;6.78;1.77;;;;;;;;;;5099017;27;20108;-71
2023/05/24 00:20:39;;;;;;;6.95;1.88;;;;;;;;;;5102738;28;20038;-71
2023/05/24 00:23:04;;;;;;;5.00;2.00;;;;;;;;;;5104299;28;20032;-71
2023/05/24 00:25:29;;;;;;;4.05;1.55;;;;;;;;;;5108174;27;20036;-72
2023/05/24 00:27:55;;;;;;;6.72;1.83;;;;;;;;;;5110285;27;20019;-71
2023/05/24 00:30:20;;;;;;;14.02;2.10;;;;;;;;;;5108675;27;20460;-71
2023/05/24 00:32:46;;;;;;;5.68;1.90;;;;;;;;;;5095932;28;20394;-71
2023/05/24 00:35:11;;;;;;;5.40;1.88;;;;;;;;;;5105964;27;20040;-71
2023/05/24 00:37:36;;;;;;;9.27;2.70;;;;;;;;;;5117924;27;20042;-71
2023/05/24 00:40:03;;;;;;;4.18;1.90;;;;;;;;;;5093504;28;20564;-71
2023/05/24 00:42:29;;;;;;;5.45;1.98;;;;;;;;;;5100429;28;20432;-71
2023/05/24 00:44:54;;;;;;;10.70;2.70;;;;;;;;;;5098982;27;20501;-71
2023/05/24 00:47:19;;;;;;;13.35;2.10;;;;;;;;;;5096369;27;20658;-72
2023/05/24 00:49:45;;;;;;;7.43;2.55;;;;;;;;;;5094574;28;20031;-71
2023/05/24 00:52:11;;;;;;;10.75;2.38;;;;;;;;;;5098267;27;20215;-71
2023/05/24 00:54:39;;;;;;;8.00;1.98;;;;;;;;;;5109328;27;20400;-71
2023/05/24 00:57:05;;;;;;;7.88;2.08;;;;;;;;;;5098274;27;20508;-71
2023/05/24 00:59:31;;;;;;;7.53;2.22;;;;;;;;;;5089237;27;20046;-71
2023/05/24 01:01:57;;;;;;;9.63;2.28;;;;;;;;;;5109050;27;20048;-71
2023/05/24 01:04:22;;;;;;;4.80;1.83;;;;;;;;;;5104396;27;20031;-72
2023/05/24 01:07:08;;;;;;;8.35;2.28;;;;;;;;;;5101476;28;20481;-72
2023/05/24 01:09:42;;;;;;;9.93;2.10;;;;;;;;;;5106894;28;20042;-71
2023/05/24 01:12:11;;;;;;;7.68;2.30;;;;;;;;;;5097962;27;20466;-72
2023/05/24 01:14:54;;;;;;;6.88;2.08;;;;;;;;;;5093238;27;20123;-71
2023/05/24 01:17:25;;;;;;;4.95;1.98;;;;;;;;;;5108558;27;20041;-71
2023/05/24 01:20:00;;;;;;;4.78;2.00;;;;;;;;;;5100338;27;20754;-71
2023/05/24 01:23:17;;;;;;;6.28;2.13;;;;;;;;;;5095010;27;20043;-71
2023/05/24 01:25:51;;;;;;;11.77;2.72;;;;;;;;;;5058537;28;20054;-71
2023/05/24 01:28:18;;;;;;;10.30;2.30;;;;;;;;;;5089901;28;20024;-71
2023/05/24 01:30:44;;;;;;;6.40;1.85;;;;;;;;;;5092472;27;20036;-71
2023/05/24 01:33:09;;;;;;;10.80;2.40;;;;;;;;;;5104124;27;20040;-72
2023/05/24 01:35:39;;;;;;;10.93;2.58;;;;;;;;;;5102349;27;20042;-71
2023/05/24 01:38:05;;;;;;;8.70;3.20;;;;;;;;;;5094237;28;20047;-71
2023/05/24 01:40:32;;;;;;;10.52;2.53;;;;;;;;;;5098045;28;20032;-72
2023/05/24 01:43:01;;;;;;;6.28;2.30;;;;;;;;;;5097423;27;20056;-71
2023/05/24 01:45:29;;;;;;;10.65;2.45;;;;;;;;;;5102613;27;20044;-71
2023/05/24 01:48:17;;;;;;;11.48;2.95;;;;;;;;;;5101165;27;20186;-71
2023/05/24 01:50:56;;;;;;;8.73;2.22;;;;;;;;;;5102473;27;20043;-71
2023/05/24 01:53:27;;;;;;;8.35;2.42;;;;;;;;;;5103865;28;20044;-71
2023/05/24 01:55:56;;;;;;;9.38;2.25;;;;;;;;;;5086817;28;20115;-71
2023/05/24 01:58:23;;;;;;;8.90;2.55;;;;;;;;;;5111431;27;20047;-71
2023/05/24 02:00:50;;;;;;;6.90;2.40;;;;;;;;;;5118332;28;20066;-71
2023/05/24 02:03:15;;;;;;;6.57;2.30;;;;;;;;;;5102145;27;20032;-71
2023/05/24 02:05:43;;;;;;;9.13;2.70;;;;;;;;;;5104750;27;20088;-71
2023/05/24 02:08:08;;;;;;;7.97;2.58;;;;;;;;;;5094365;28;20048;-72
2023/05/24 02:10:37;;;;;;;6.68;2.03;;;;;;;;;;5091768;27;20032;-71
2023/05/24 02:13:02;;;;;;;9.05;2.60;;;;;;;;;;5103703;28;20084;-72
2023/05/24 02:15:29;;;;;;;20.63;3.13;;;;;;;;;;5105836;27;20468;-71
2023/05/24 02:17:54;;;;;;;9.45;2.45;;;;;;;;;;5104815;27;20066;-71
2023/05/24 02:20:21;;;;;;;11.48;2.35;;;;;;;;;;5094470;28;20607;-72
2023/05/24 02:22:47;;;;;;;11.85;2.53;;;;;;;;;;5104996;27;20096;-72
2023/05/24 02:25:13;;;;;;;4.88;1.95;;;;;;;;;;5096232;27;20016;-72
2023/05/24 02:27:38;;;;;;;7.03;2.67;;;;;;;;;;5100744;28;20404;-71
2023/05/24 02:30:05;;;;;;;8.35;2.17;;;;;;;;;;5105343;27;20074;-72
2023/05/24 02:32:31;;;;;;;5.75;2.05;;;;;;;;;;5098264;27;20031;-72
2023/05/24 02:34:58;;;;;;;9.00;2.53;;;;;;;;;;5097796;27;20036;-72
2023/05/24 02:37:24;;;;;;;6.88;2.65;;;;;;;;;;5105416;27;20115;-71
2023/05/24 02:39:49;;;;;;;9.65;2.50;;;;;;;;;;5091872;28;20034;-71
2023/05/24 02:42:15;;;;;;;6.50;1.90;;;;;;;;;;5103023;27;20028;-72
2023/05/24 02:44:41;;;;;;;7.30;2.03;;;;;;;;;;5104618;27;20124;-72
2023/05/24 02:47:07;;;;;;;7.30;2.35;;;;;;;;;;5105376;27;20039;-72
2023/05/24 02:49:32;;;;;;;7.45;2.22;;;;;;;;;;5096288;27;20039;-71
2023/05/24 02:51:58;;;;;;;11.25;2.80;;;;;;;;;;5092684;27;20032;-71
2023/05/24 02:54:23;;;;;;;8.15;2.45;;;;;;;;;;5090809;27;20032;-71
2023/05/24 02:56:49;;;;;;;10.50;2.70;;;;;;;;;;5094116;27;20121;-71
2023/05/24 02:59:14;;;;;;;7.32;2.00;;;;;;;;;;5100836;27;20127;-72
2023/05/24 03:01:40;;;;;;;6.65;2.30;;;;;;;;;;5099173;28;20067;-72
2023/05/24 03:04:05;;;;;;;9.60;2.03;;;;;;;;;;5089292;27;20047;-71
2023/05/24 03:06:31;;;;;;;7.35;2.72;;;;;;;;;;5093674;28;20056;-72
2023/05/24 03:08:57;;;;;;;6.47;1.88;;;;;;;;;;5093514;28;20532;-71
2023/05/24 03:11:22;;;;;;;3.22;1.60;;;;;;;;;;5097304;27;20042;-72
2023/05/24 03:13:48;;;;;;;6.00;2.65;;;;;;;;;;5096510;28;20036;-71
2023/05/24 03:16:13;;;;;;;5.68;2.35;;;;;;;;;;5088029;27;20058;-71
2023/05/24 03:18:39;;;;;;;9.82;2.17;;;;;;;;;;5096518;28;20097;-71
2023/05/24 03:21:06;;;;;;;7.22;2.30;;;;;;;;;;5092988;27;20517;-71
2023/05/24 03:23:32;;;;;;;11.63;2.58;;;;;;;;;;5104897;28;20032;-71
2023/05/24 03:25:57;;;;;;;8.32;2.30;;;;;;;;;;5098534;28;20040;-71
2023/05/24 03:28:23;;;;;;;4.78;1.80;;;;;;;;;;5096910;28;20028;-71
2023/05/24 03:30:48;;;;;;;6.30;2.03;;;;;;;;;;5087646;28;20050;-71
2023/05/24 03:33:14;;;;;;;5.63;2.05;;;;;;;;;;5105157;27;20116;-71
2023/05/24 03:35:39;;;;;;;9.35;2.10;;;;;;;;;;5103797;27;20031;-72
2023/05/24 03:38:05;;;;;;;5.35;2.10;;;;;;;;;;5094401;27;20382;-72
2023/05/24 03:40:32;;;;;;;4.07;2.10;;;;;;;;;;5091506;28;20040;-71
2023/05/24 03:42:58;;;;;;;6.97;2.28;;;;;;;;;;5098320;27;20537;-71
2023/05/24 03:45:23;;;;;;;5.32;2.13;;;;;;;;;;5100208;28;20043;-72
2023/05/24 03:47:48;;;;;;;4.68;2.20;;;;;;;;;;5102563;28;20070;-72
2023/05/24 03:50:14;;;;;;;3.90;1.80;;;;;;;;;;5102671;28;20121;-71
2023/05/24 03:52:41;;;;;;;7.25;2.05;;;;;;;;;;5102485;27;20032;-71
2023/05/24 03:55:07;;;;;;;11.32;2.40;;;;;;;;;;5108170;27;20510;-72
2023/05/24 03:57:32;;;;;;;8.65;2.15;;;;;;;;;;5103369;27;20036;-71
2023/05/24 03:59:59;;;;;;;6.32;2.22;;;;;;;;;;5102639;28;20043;-71
2023/05/24 04:02:24;;;;;;;7.22;1.92;;;;;;;;;;5101255;28;20044;-72
2023/05/24 04:04:50;;;;;;;7.85;2.40;;;;;;;;;;5100091;28;20032;-72
2023/05/24 04:07:15;;;;;;;9.98;2.38;;;;;;;;;;5094072;27;20027;-72
2023/05/24 04:09:41;;;;;;;5.78;2.50;;;;;;;;;;5092024;28;20157;-71
2023/05/24 04:12:07;;;;;;;5.03;2.00;;;;;;;;;;5092781;27;20036;-71
2023/05/24 04:14:32;;;;;;;11.57;3.03;;;;;;;;;;5097504;27;20036;-72
2023/05/24 04:16:57;;;;;;;7.18;2.28;;;;;;;;;;5100399;28;20188;-71
2023/05/24 04:19:23;;;;;;;9.07;3.08;;;;;;;;;;5099326;28;20117;-71
2023/05/24 04:21:49;;;;;;;4.45;2.50;;;;;;;;;;5092643;28;20047;-72
2023/05/24 04:24:15;;;;;;;8.60;2.55;;;;;;;;;;5094620;28;20116;-71
2023/05/24 04:26:40;;;;;;;5.63;2.58;;;;;;;;;;5103576;27;20065;-72
2023/05/24 04:29:06;;;;;;;11.07;2.70;;;;;;;;;;5089103;28;20063;-72
2023/05/24 04:31:33;;;;;;;11.52;2.90;;;;;;;;;;5096027;27;20279;-71
2023/05/24 04:33:58;;;;;;;6.75;2.63;;;;;;;;;;5085832;28;20114;-71
2023/05/24 04:36:24;;;;;;;5.68;2.92;;;;;;;;;;5097918;28;20157;-71
2023/05/24 04:38:52;;;;;;;6.55;2.50;;;;;;;;;;5091300;28;20036;-71
2023/05/24 04:41:18;;;;;;;7.85;3.00;;;;;;;;;;5094310;27;20035;-71
2023/05/24 04:43:44;;;;;;;11.75;3.15;;;;;;;;;;5110991;28;20035;-71
2023/05/24 04:46:09;;;;;;;7.75;2.88;;;;;;;;;;5112342;27;20035;-71
2023/05/24 04:48:35;;;;;;;7.43;2.67;;;;;;;;;;5099304;28;20024;-71
2023/05/24 04:51:00;;;;;;;10.20;2.92;;;;;;;;;;5102456;27;20464;-71
2023/05/24 04:53:26;;;;;;;9.32;2.80;;;;;;;;;;5091404;27;20131;-71
2023/05/24 04:55:51;;;;;;;10.77;2.85;;;;;;;;;;5095069;27;20028;-71
2023/05/24 04:58:17;;;;;;;8.50;2.85;;;;;;;;;;5094657;27;20401;-71
2023/05/24 05:00:43;;;;;;;12.85;3.22;;;;;;;;;;5091414;28;20012;-72
2023/05/24 05:03:09;;;;;;;8.85;2.90;;;;;;;;;;5100722;28;20031;-72
2023/05/24 05:05:35;;;;;;;12.27;2.80;;;;;;;;;;5102453;27;20030;-72
2023/05/24 05:08:01;;;;;;;11.60;2.85;;;;;;;;;;5104408;28;20023;-71
2023/05/24 05:10:26;;;;;;;12.00;2.95;;;;;;;;;;5099359;28;20037;-71
2023/05/24 05:12:52;;;;;;;12.25;3.50;;;;;;;;;;5103474;27;20422;-71
2023/05/24 05:15:21;;;;;;;11.20;2.97;;;;;;;;;;5087129;27;20092;-71
2023/05/24 05:17:46;;;;;;;8.00;2.28;;;;;;;;;;5098809;27;20032;-72
2023/05/24 05:20:12;;;;;;;11.52;3.03;;;;;;;;;;5105437;27;20123;-72
2023/05/24 05:22:37;;;;;;;9.52;3.17;;;;;;;;;;5091993;28;20088;-72
2023/05/24 05:25:03;;;;;;;11.35;3.33;;;;;;;;;;5100503;28;20030;-72
2023/05/24 05:27:29;;;;;;;12.05;3.47;;;;;;;;;;5103734;27;20024;-72
2023/05/24 05:29:54;;;;;;;10.07;2.88;;;;;;;;;;5102372;27;20035;-72
2023/05/24 05:32:20;;;;;;;10.65;3.72;;;;;;;;;;5096496;27;20032;-73
2023/05/24 05:34:45;;;;;;;13.98;3.60;;;;;;;;;;5102742;27;20048;-71
2023/05/24 05:37:12;;;;;;;15.23;3.13;;;;;;;;;;5094376;27;20022;-72
2023/05/24 05:39:37;;;;;;;14.55;3.92;;;;;;;;;;5093643;28;20073;-72
2023/05/24 05:42:03;;;;;;;13.27;3.70;;;;;;;;;;5089395;28;20515;-72
2023/05/24 05:44:28;;;;;;;18.92;3.42;;;;;;;;;;5090862;28;20063;-72
2023/05/24 05:46:53;;;;;;;14.23;3.80;;;;;;;;;;5099623;27;20032;-72
2023/05/24 05:49:19;;;;;;;12.88;3.22;;;;;;;;;;5094406;27;20115;-72
2023/05/24 05:51:45;;;;;;;9.60;3.22;;;;;;;;;;5100264;27;20023;-72
2023/05/24 05:54:14;;;;;;;7.00;2.95;;;;;;;;;;5101545;28;21086;-72
2023/05/24 05:56:44;;;;;;;12.40;3.33;;;;;;;;;;5095328;27;20027;-72
2023/05/24 05:59:14;;;;;;;9.50;3.08;;;;;;;;;;5105959;27;20116;-71
2023/05/24 06:01:40;;;;;;;11.02;3.17;;;;;;;;;;5113494;27;20039;-72
2023/05/24 06:04:06;;;;;;;16.13;3.83;;;;;;;;;;5101248;28;20030;-72
2023/05/24 06:06:32;;;;;;;13.80;3.40;;;;;;;;;;5114009;27;20039;-72
2023/05/24 06:08:57;;;;;;;11.57;3.53;;;;;;;;;;5101968;27;20043;-72
2023/05/24 06:11:23;;;;;;;13.63;3.50;;;;;;;;;;5104790;27;20037;-72
2023/05/24 06:13:48;;;;;;;11.63;3.33;;;;;;;;;;5093334;28;20039;-72
2023/05/24 06:16:13;;;;;;;9.90;2.92;;;;;;;;;;5097520;28;20027;-72
2023/05/24 06:18:39;;;;;;;16.40;3.53;;;;;;;;;;5102288;27;20025;-72
2023/05/24 06:21:05;;;;;;;13.60;3.95;;;;;;;;;;5099332;27;20032;-72
2023/05/24 06:23:31;;;;;;;17.95;4.32;;;;;;;;;;5104298;27;20039;-72
2023/05/24 06:25:57;;;;;;;10.98;3.90;;;;;;;;;;5094918;27;20073;-72
2023/05/24 06:28:23;;;;;;;16.15;4.22;;;;;;;;;;5101548;27;20019;-72
2023/05/24 06:30:48;;;;;;;11.80;3.70;;;;;;;;;;5097850;27;20786;-72
2023/05/24 06:33:13;;;;;;;21.25;4.15;;;;;;;;;;5098805;27;20028;-72
2023/05/24 06:35:39;;;;;;;15.48;4.05;;;;;;;;;;5094170;27;20059;-72
2023/05/24 06:38:04;;;;;;;14.02;3.45;;;;;;;;;;5098909;27;20028;-72
2023/05/24 06:40:30;;;;;;;14.82;3.60;;;;;;;;;;5099527;27;20497;-72
2023/05/24 06:42:57;;;;;;;12.63;3.25;;;;;;;;;;5085406;27;20485;-71
2023/05/24 06:45:23;;;;;;;18.55;3.58;;;;;;;;;;5093426;27;20043;-72
2023/05/24 06:47:48;;;;;;;13.98;3.10;;;;;;;;;;5101329;27;20039;-72
2023/05/24 06:50:13;;;;;;;15.98;3.70;;;;;;;;;;5094087;27;20090;-72
2023/05/24 06:52:40;;;;;;;17.75;3.47;;;;;;;;;;5105855;27;20481;-72
2023/05/24 06:55:05;;;;;;;9.32;3.00;;;;;;;;;;5088406;28;20024;-72
2023/05/24 06:57:31;;;;;;;11.95;2.80;;;;;;;;;;5089081;27;20428;-71
2023/05/24 06:59:56;;;;;;;8.60;2.90;;;;;;;;;;5091105;27;20508;-71
2023/05/24 07:02:27;;;;;;;15.05;3.15;;;;;;;;;;5090744;27;20518;-72
2023/05/24 07:04:52;;;;;;;13.60;3.22;;;;;;;;;;5095403;27;20036;-72
2023/05/24 07:07:19;;;;;;;13.52;4.05;;;;;;;;;;5093449;27;20565;-71
2023/05/24 07:09:46;;;;;;;13.13;3.03;;;;;;;;;;5100973;28;20011;-72
2023/05/24 07:12:11;;;;;;;15.27;3.00;;;;;;;;;;5101688;27;20024;-72
2023/05/24 07:14:36;;;;;;;12.50;3.38;;;;;;;;;;5088628;28;20036;-72
2023/05/24 07:17:02;;;;;;;17.67;3.15;;;;;;;;;;5097541;28;20682;-72
2023/05/24 07:19:28;;;;;;;11.80;3.00;;;;;;;;;;5103794;27;20103;-72
2023/05/24 07:21:56;;;;;;;10.98;3.15;;;;;;;;;;5104234;28;20034;-72
2023/05/24 07:24:22;;;;;;;10.23;2.80;;;;;;;;;;5101017;28;20043;-72
2023/05/24 07:26:49;;;;;;;8.93;3.30;;;;;;;;;;5110500;27;20031;-72
2023/05/24 07:29:15;;;;;;;14.82;4.38;;;;;;;;;;5112994;28;20032;-72
2023/05/24 07:31:41;;;;;;;10.63;3.45;;;;;;;;;;5101253;27;20039;-72
2023/05/24 07:34:07;;;;;;;12.55;4.00;;;;;;;;;;5099067;27;20691;-72
2023/05/24 07:36:32;;;;;;;11.55;3.80;;;;;;;;;;5092586;28;20020;-72
2023/05/24 07:38:59;;;;;;;13.25;4.07;;;;;;;;;;5091760;27;20032;-72
2023/05/24 07:41:27;;;;;;;13.70;3.65;;;;;;;;;;5096720;27;20027;-72
2023/05/24 07:43:55;;;;;;;14.15;3.67;;;;;;;;;;5095941;27;20088;-72
2023/05/24 07:46:21;;;;;;;9.50;3.17;;;;;;;;;;5089411;27;20034;-72
2023/05/24 07:48:46;;;;;;;13.40;3.13;;;;;;;;;;5099301;28;20023;-72
2023/05/24 07:51:12;;;;;;;10.20;3.88;;;;;;;;;;5088415;27;21041;-72
2023/05/24 07:53:37;;;;;;;9.10;3.33;;;;;;;;;;5095621;27;20028;-72
2023/05/24 07:56:03;;;;;;;14.73;3.60;;;;;;;;;;5097698;27;20031;-72
2023/05/24 07:58:28;;;;;;;13.70;3.60;;;;;;;;;;5090780;28;20278;-72
2023/05/24 08:00:54;;;;;;;13.35;3.42;;;;;;;;;;5092136;28;20516;-72
2023/05/24 08:03:20;;;;;;;13.73;3.40;;;;;;;;;;5095313;28;20047;-72
2023/05/24 08:05:45;;;;;;;18.77;3.60;;;;;;;;;;5095531;28;20032;-72
2023/05/24 08:08:11;;;;;;;13.77;3.22;;;;;;;;;;5090629;28;20041;-72
2023/05/24 08:10:36;;;;;;;11.88;3.10;;;;;;;;;;5082712;28;20036;-72
2023/05/24 08:13:02;;;;;;;11.02;3.03;;;;;;;;;;5100647;28;20027;-72
2023/05/24 08:15:27;;;;;;;9.38;3.45;;;;;;;;;;5101262;28;20474;-72
2023/05/24 08:17:53;;;;;;;13.35;3.03;;;;;;;;;;5113133;27;20040;-72
2023/05/24 08:20:18;;;;;;;11.57;2.83;;;;;;;;;;5094111;27;20126;-71
2023/05/24 08:22:44;;;;;;;12.50;3.03;;;;;;;;;;5102297;28;20552;-71
2023/05/24 08:25:12;;;;;;;9.27;2.65;;;;;;;;;;5103428;27;20011;-72
2023/05/24 08:27:38;;;;;;;11.80;3.63;;;;;;;;;;5101203;27;20110;-72
2023/05/24 08:30:04;;;;;;;11.65;3.45;;;;;;;;;;5099939;28;20817;-72
2023/05/24 08:32:29;;;;;;;12.82;3.17;;;;;;;;;;5109660;27;20028;-71
2023/05/24 08:34:55;;;;;;;10.05;3.00;;;;;;;;;;5103944;27;20035;-71
2023/05/24 08:37:21;;;;;;;8.90;3.08;;;;;;;;;;5095444;27;20027;-72
2023/05/24 08:39:47;;;;;;;6.22;2.67;;;;;;;;;;5094712;27;20007;-71
2023/05/24 08:42:13;;;;;;;15.27;3.42;;;;;;;;;;5090874;27;20054;-72
2023/05/24 08:44:47;;;;;;;8.68;2.88;;;;;;;;;;5103515;27;20089;-71
2023/05/24 08:47:14;;;;;;;9.98;2.60;;;;;;;;;;5097870;27;20190;-72
2023/05/24 08:49:41;;;;;;;8.70;2.90;;;;;;;;;;5103725;27;20143;-72
2023/05/24 08:52:07;;;;;;;13.13;3.00;;;;;;;;;;5105988;27;20119;-71
2023/05/24 08:54:35;;;;;;;16.02;3.58;;;;;;;;;;5098287;27;20122;-71
2023/05/24 08:57:01;;;;;;;12.32;2.67;;;;;;;;;;5112732;27;20860;-72
2023/05/24 08:59:26;;;;;;;12.02;3.17;;;;;;;;;;5096277;27;20121;-71
2023/05/24 09:01:53;;;;;;;7.70;2.78;;;;;;;;;;5101484;27;20110;-72
2023/05/24 09:04:20;;;;;;;8.27;2.53;;;;;;;;;;5098383;27;20110;-71
2023/05/24 09:06:46;;;;;;;8.50;3.10;;;;;;;;;;5096802;27;20027;-72
2023/05/24 09:09:16;;;;;;;11.18;3.13;;;;;;;;;;5098750;27;20599;-72
2023/05/24 09:11:43;;;;;;;9.43;3.15;;;;;;;;;;5101983;27;20038;-72
2023/05/24 09:14:09;;;;;;;10.43;2.72;;;;;;;;;;5106379;27;20168;-72
2023/05/24 09:16:34;;;;;;;11.95;3.15;;;;;;;;;;5100444;27;20497;-72
2023/05/24 09:19:00;;;;;;;8.07;3.30;;;;;;;;;;5104004;28;20152;-72
2023/05/24 09:21:26;;;;;;;8.82;3.70;;;;;;;;;;5096175;27;20540;-72
2023/05/24 09:23:52;;;;;;;8.23;2.70;;;;;;;;;;5104113;27;20031;-72
2023/05/24 09:26:17;;;;;;;9.38;3.20;;;;;;;;;;5103400;28;20118;-72
2023/05/24 09:28:43;;;;;;;13.35;2.85;;;;;;;;;;5105969;27;20192;-72
2023/05/24 09:31:09;;;;;;;7.75;3.20;;;;;;;;;;5094318;28;20023;-72
2023/05/24 09:33:34;;;;;;;13.95;3.45;;;;;;;;;;5093474;27;20563;-72
2023/05/24 09:36:03;;;;;;;10.10;2.50;;;;;;;;;;5094143;27;20043;-72
2023/05/24 09:38:28;;;;;;;8.65;2.85;;;;;;;;;;5096280;27;20676;-72
2023/05/24 09:41:04;;;;;;;10.07;3.08;;;;;;;;;;5092198;27;20124;-72
2023/05/24 09:43:31;;;;;;;10.00;2.80;;;;;;;;;;5103311;27;20382;-72
2023/05/24 09:45:58;;;;;;;8.32;3.22;;;;;;;;;;5088184;27;20032;-72
2023/05/24 09:48:24;;;;;;;11.07;3.05;;;;;;;;;;5097064;27;20043;-72
2023/05/24 09:51:00;;;;;;;9.27;2.90;;;;;;;;;;5098028;27;20421;-72
2023/05/24 09:53:25;;;;;;;7.15;2.75;;;;;;;;;;5104089;27;20077;-72
2023/05/24 09:55:53;;;;;;;9.27;3.40;;;;;;;;;;5094176;27;20067;-72
2023/05/24 09:58:18;;;;;;;9.70;3.45;;;;;;;;;;5095263;27;20026;-72
2023/05/24 10:00:44;;;;;;;8.55;2.80;;;;;;;;;;5096959;27;20447;-72
2023/05/24 10:03:11;;;;;;;9.02;3.20;;;;;;;;;;5099378;27;20548;-71
2023/05/24 10:05:37;;;;;;;6.20;3.00;;;;;;;;;;5090422;27;20032;-71
2023/05/24 10:08:07;;;;;;;11.18;3.08;;;;;;;;;;5088187;27;20046;-71
2023/05/24 10:10:33;;;;;;;8.52;2.90;;;;;;;;;;5106519;27;20048;-71
2023/05/24 10:13:00;;;;;;;8.52;2.67;;;;;;;;;;5108848;27;20481;-71
2023/05/24 10:15:26;;;;;;;19.67;4.30;;;;;;;;;;5092153;27;20036;-71
2023/05/24 10:17:53;;;;;;;8.77;2.97;;;;;;;;;;5099565;27;20852;-71
2023/05/24 10:20:19;;;;;;;8.15;2.78;;;;;;;;;;5097735;27;20063;-71
2023/05/24 10:22:46;;;;;;;5.45;2.58;;;;;;;;;;5092038;27;20072;-71
2023/05/24 10:25:26;;;;;;;9.43;3.00;;;;;;;;;;5090951;27;20019;-71
2023/05/24 10:27:55;;;;;;;9.90;2.85;;;;;;;;;;5089571;27;20023;-71
2023/05/24 10:30:31;;;;;;;11.50;2.80;;;;;;;;;;5087364;28;20036;-71
2023/05/24 10:32:58;;;;;;;9.50;3.05;;;;;;;;;;5096480;27;20036;-71
2023/05/24 10:35:24;;;;;;;8.48;2.65;;;;;;;;;;5097949;27;20040;-71
2023/05/24 10:37:49;;;;;;;15.13;3.10;;;;;;;;;;5099267;27;20223;-71
2023/05/24 10:40:17;;;;;;;7.32;2.17;;;;;;;;;;5094554;28;20063;-71
2023/05/24 10:42:43;;;;;;;5.47;2.38;;;;;;;;;;5100827;27;20019;-71
2023/05/24 10:45:25;;;;;;;9.45;2.30;;;;;;;;;;5099639;27;20039;-71
2023/05/24 10:47:51;;;;;;;9.35;2.70;;;;;;;;;;5090123;27;20282;-71
2023/05/24 10:50:17;;;;;;;8.55;2.58;;;;;;;;;;5102559;27;20589;-71
2023/05/24 10:52:43;;;;;;;8.45;2.92;;;;;;;;;;5101072;27;20038;-71
2023/05/24 10:55:10;;;;;;;7.05;2.53;;;;;;;;;;5100885;27;20027;-71
2023/05/24 10:57:37;;;;;;;8.02;2.90;;;;;;;;;;5092346;27;20738;-71
2023/05/24 11:00:27;;;;;;;9.02;2.63;;;;;;;;;;5094218;27;20582;-72
2023/05/24 11:03:02;;;;;;;10.00;2.63;;;;;;;;;;5099446;27;20042;-71
2023/05/24 11:05:49;;;;;;;8.10;2.67;;;;;;;;;;5101173;27;20567;-71
2023/05/24 11:08:32;;;;;;;8.88;2.95;;;;;;;;;;5093522;28;20127;-71
2023/05/24 11:11:15;;;;;;;5.85;2.53;;;;;;;;;;5090968;28;20047;-71
2023/05/24 11:13:42;;;;;;;12.63;3.10;;;;;;;;;;5096974;27;20174;-71
2023/05/24 11:16:07;;;;;;;8.85;3.08;;;;;;;;;;5100183;27;20062;-71
2023/05/24 11:18:38;;;;;;;16.75;3.22;;;;;;;;;;5100660;27;20111;-71
2023/05/24 11:21:05;;;;;;;13.50;3.17;;;;;;;;;;5091527;28;20658;-71
2023/05/24 11:23:31;;;;;;;6.25;2.88;;;;;;;;;;5101751;27;20058;-71
2023/05/24 11:25:56;;;;;;;6.35;3.15;;;;;;;;;;5096772;27;20425;-71
2023/05/24 11:28:22;;;;;;;12.85;3.55;;;;;;;;;;5099942;27;20110;-71
2023/05/24 11:30:49;;;;;;;12.27;3.10;;;;;;;;;;5098567;28;20115;-71
2023/05/24 11:33:18;;;;;;;11.38;3.28;;;;;;;;;;5096626;27;20873;-71
2023/05/24 11:35:45;;;;;;;7.70;2.95;;;;;;;;;;5102697;27;20051;-71
2023/05/24 11:38:14;;;;;;;7.55;3.20;;;;;;;;;;5097412;27;20044;-71
2023/05/24 11:40:45;;;;;;;10.35;3.70;;;;;;;;;;5100763;27;20100;-71
2023/05/24 11:43:16;;;;;;;8.52;3.17;;;;;;;;;;5104449;27;20021;-71
2023/05/24 11:45:43;;;;;;;11.68;3.75;;;;;;;;;;5093127;28;20028;-71
2023/05/24 11:48:10;;;;;;;9.15;3.53;;;;;;;;;;5098844;27;20040;-71
2023/05/24 11:50:43;;;;;;;14.63;4.57;;;;;;;;;;5094839;28;20032;-71
2023/05/24 11:53:12;;;;;;;10.60;4.22;;;;;;;;;;5103719;27;20474;-71
2023/05/24 11:55:40;;;;;;;9.20;4.28;;;;;;;;;;5098783;27;20040;-71
2023/05/24 11:58:31;;;;;;;12.20;3.70;;;;;;;;;;5089192;28;20125;-71
2023/05/24 12:00:57;;;;;;;12.25;3.90;;;;;;;;;;5099711;27;20066;-71
2023/05/24 12:03:22;;;;;;;11.30;4.85;;;;;;;;;;5103151;27;20055;-71
2023/05/24 12:05:48;;;;;;;11.02;4.82;;;;;;;;;;5091823;27;20124;-71
2023/05/24 12:08:16;;;;;;;15.43;5.68;;;;;;;;;;5090784;27;21035;-71
2023/05/24 12:10:42;;;;;;;14.73;5.70;;;;;;;;;;5090926;28;20036;-71
2023/05/24 12:13:22;;;;;;;11.50;5.85;;;;;;;;;;5097832;27;20055;-71
2023/05/24 12:15:54;;;;;;;14.18;7.13;;;;;;;;;;5089850;28;20046;-71
2023/05/24 12:18:24;;;;;;;15.13;6.97;;;;;;;;;;5092864;28;20604;-71
2023/05/24 12:20:51;;;;;;;14.40;7.65;;;;;;;;;;5093687;27;20080;-71
2023/05/24 12:23:23;;;;;;;17.40;7.65;;;;;;;;;;5099694;27;20114;-71
2023/05/24 12:25:49;;;;;;;19.17;8.57;;;;;;;;;;5095877;27;20036;-71
2023/05/24 12:28:15;;;;;;;18.70;8.18;;;;;;;;;;5091679;28;20031;-71
2023/05/24 12:30:43;;;;;;;17.25;9.65;;;;;;;;;;5092342;27;20163;-71
2023/05/24 12:33:11;;;;;;;17.00;9.45;;;;;;;;;;5093793;27;20142;-71
2023/05/24 12:35:40;;;;;;;18.92;8.18;;;;;;;;;;5091450;27;20138;-71
2023/05/24 12:38:07;;;;;;;15.60;8.48;;;;;;;;;;5093391;27;20028;-71
2023/05/24 12:40:33;;;;;;;14.30;7.70;;;;;;;;;;5087471;27;20698;-71
2023/05/24 12:42:59;;;;;;;19.98;7.95;;;;;;;;;;5090506;28;20024;-71
2023/05/24 12:45:26;;;;;;;13.48;7.68;;;;;;;;;;5100468;27;20443;-71
2023/05/24 12:47:53;;;;;;;22.35;7.35;;;;;;;;;;5094672;28;20048;-71
2023/05/24 12:50:20;;;;;;;15.85;7.15;;;;;;;;;;5094747;27;20058;-71
2023/05/24 12:52:47;;;;;;;17.90;7.70;;;;;;;;;;5097084;27;20038;-71
2023/05/24 12:55:16;;;;;;;14.75;8.05;;;;;;;;;;5111612;27;20050;-71
2023/05/24 12:57:43;;;;;;;14.57;7.30;;;;;;;;;;5101526;27;20099;-71
2023/05/24 13:00:09;;;;;;;13.65;7.03;;;;;;;;;;5091902;28;20038;-71
2023/05/24 13:02:36;;;;;;;16.88;8.80;;;;;;;;;;5098637;27;20043;-71
2023/05/24 13:05:02;;;;;;;16.67;8.10;;;;;;;;;;5091277;27;20105;-71
2023/05/24 13:07:31;;;;;;;16.15;9.05;;;;;;;;;;5092878;27;20032;-71
2023/05/24 13:09:57;;;;;;;16.42;7.95;;;;;;;;;;5096555;27;20032;-71
2023/05/24 13:12:23;;;;;;;18.33;8.38;;;;;;;;;;5092340;27;20070;-71
2023/05/24 13:14:48;;;;;;;15.70;8.45;;;;;;;;;;5086420;27;20135;-71
2023/05/24 13:17:16;;;;;;;15.50;9.32;;;;;;;;;;5095765;27;20040;-71
2023/05/24 13:19:42;;;;;;;15.85;8.32;;;;;;;;;;5100018;27;20114;-72
2023/05/24 13:22:07;;;;;;;17.73;8.68;;;;;;;;;;5085671;27;20903;-72
2023/05/24 13:24:33;;;;;;;17.00;7.95;;;;;;;;;;5103370;28;20016;-72
2023/05/24 13:26:58;;;;;;;15.15;8.85;;;;;;;;;;5096017;27;20039;-72
2023/05/24 13:29:23;;;;;;;15.85;8.07;;;;;;;;;;5101527;27;20031;-71
2023/05/24 13:31:49;;;;;;;15.20;7.38;;;;;;;;;;5094963;27;20095;-71
2023/05/24 13:34:16;;;;;;;15.68;7.38;;;;;;;;;;5099649;27;20034;-71
2023/05/24 13:36:42;;;;;;;14.82;6.43;;;;;;;;;;5090435;27;20027;-71
2023/05/24 13:39:08;;;;;;;18.52;8.45;;;;;;;;;;5092101;27;20031;-71
2023/05/24 13:41:34;;;;;;;16.95;8.25;;;;;;;;;;5085872;27;20067;-73
2023/05/24 13:44:00;;;;;;;15.65;8.88;;;;;;;;;;5098385;27;20071;-71
2023/05/24 13:46:27;;;;;;;15.60;8.52;;;;;;;;;;5092601;28;20024;-71
2023/05/24 13:48:54;;;;;;;17.15;8.30;;;;;;;;;;5090787;27;20030;-71
2023/05/24 13:51:19;;;;;;;16.25;9.05;;;;;;;;;;5092825;27;20063;-72
2023/05/24 13:53:46;;;;;;;14.52;8.27;;;;;;;;;;5094586;27;20082;-72
2023/05/24 13:56:12;;;;;;;13.35;7.30;;;;;;;;;;5091595;27;20119;-72
2023/05/24 13:58:37;;;;;;;15.70;8.15;;;;;;;;;;5097578;27;20114;-72
2023/05/24 14:01:03;;;;;;;17.17;7.88;;;;;;;;;;5089107;27;20137;-71
2023/05/24 14:03:28;;;;;;;17.02;8.48;;;;;;;;;;5086584;28;20036;-72
2023/05/24 14:05:53;;;;;;;15.25;7.28;;;;;;;;;;5095989;27;20040;-72
2023/05/24 14:08:19;;;;;;;13.98;7.95;;;;;;;;;;5104569;27;20061;-72
2023/05/24 14:10:45;;;;;;;16.63;8.05;;;;;;;;;;5092846;28;20710;-71
2023/05/24 14:13:11;;;;;;;15.68;6.88;;;;;;;;;;5103476;28;20046;-72
2023/05/24 14:15:36;;;;;;;11.82;7.25;;;;;;;;;;5106296;28;20136;-71
2023/05/24 14:18:06;;;;;;;12.70;7.18;;;;;;;;;;5101485;27;20063;-71
2023/05/24 14:20:38;;;;;;;13.57;6.97;;;;;;;;;;5100131;27;20031;-71
2023/05/24 14:23:05;;;;;;;19.67;7.47;;;;;;;;;;5089704;28;20048;-72
2023/05/24 14:25:31;;;;;;;16.52;7.55;;;;;;;;;;5097450;27;20043;-71
2023/05/24 14:27:57;;;;;;;10.48;6.32;;;;;;;;;;5108468;27;20035;-71
2023/05/24 14:30:22;;;;;;;12.15;6.93;;;;;;;;;;5090526;27;20833;-71
2023/05/24 14:32:48;;;;;;;13.55;7.28;;;;;;;;;;5092227;27;20063;-71
2023/05/24 14:35:13;;;;;;;12.32;6.43;;;;;;;;;;5082033;27;20088;-72